Time;durP1;ratioP1;P1;durP2;ratioP2;P2;SDS_P1;SDS_P2;PMS_P1;PMS_P2;Temp;Humidity;BMP_temperature;BMP_pressure;BME280_temperature;BME280_humidity;BME280_pressure;Samples;Min_cycle;Max_cycle;Signal;HPM_P1;HPM_P2
2022/05/29 00:01:57;;;;;;;;;;;;;;;;;;5099514;28;1408;-79
2022/05/29 00:04:23;;;;;;;;;;;;;;;;;;5087742;28;1991;-78
2022/05/29 00:06:50;;;;;;;;;;;;;;;;;;5069253;28;1373;-79
2022/05/29 00:09:25;;;;;;;;;;;;;;;;;;5110732;27;1108;-79
2022/05/29 00:11:51;;;;;;;;;;;;;;;;;;5093940;28;1260;-79
2022/05/29 00:14:16;;;;;;;;;;;;;;;;;;5088110;27;1386;-79
2022/05/29 00:16:41;;;;;;;;;;;;;;;;;;5086819;27;1261;-78
2022/05/29 00:19:07;;;;;;;;;;;;;;;;;;5069281;28;1214;-79
2022/05/29 00:21:34;;;;;;;;;;;;;;;;;;5104994;27;1169;-79
2022/05/29 00:24:00;;;;;;;;;;;;;;;;;;5108270;27;1952;-79
2022/05/29 00:26:25;;;;;;;;;;;;;;;;;;5098893;27;1155;-78
2022/05/29 00:28:51;;;;;;;;;;;;;;;;;;5088251;27;1270;-78
2022/05/29 00:31:17;;;;;;;;;;;;;;;;;;5102523;28;1164;-78
2022/05/29 00:33:42;;;;;;;;;;;;;;;;;;5089132;28;1289;-79
2022/05/29 00:36:09;;;;;;;;;;;;;;;;;;5088356;27;1206;-78
2022/05/29 00:38:38;;;;;;;;;;;;;;;;;;5126376;27;1329;-78
2022/05/29 00:41:03;;;;;;;;;;;;;;;;;;5103281;28;1241;-78
2022/05/29 00:43:28;;;;;;;;;;;;;;;;;;5087629;28;1249;-79
2022/05/29 00:45:57;;;;;;;;;;;;;;;;;;5067002;28;1973;-78
2022/05/29 00:48:23;;;;;;;;;;;;;;;;;;5105632;27;1298;-77
2022/05/29 00:50:51;;;;;;;;;;;;;;;;;;5090922;28;1293;-77
2022/05/29 00:53:17;;;;;;;;;;;;;;;;;;5066312;28;1208;-78
2022/05/29 00:55:45;;;;;;;;;;;;;;;;;;5104196;27;1354;-77
2022/05/29 00:58:11;;;;;;;;;;;;;;;;;;5107077;27;1285;-78
2022/05/29 01:00:37;;;;;;;;;;;;;;;;;;5090604;27;1322;-78
2022/05/29 01:03:03;;;;;;;;;;;;;;;;;;5105315;27;1300;-78
2022/05/29 01:05:29;;;;;;;;;;;;;;;;;;5093975;27;1953;-79
2022/05/29 01:08:08;;;;;;;;;;;;;;;;;;5084542;28;1207;-78
2022/05/29 01:10:54;;;;;;;;;;;;;;;;;;5109627;27;1325;-79
2022/05/29 01:13:27;;;;;;;;;;;;;;;;;;5126837;27;1184;-78
2022/05/29 01:15:55;;;;;;;;;;;;;;;;;;5107748;27;1352;-77
2022/05/29 01:18:34;;;;;;;;;;;;;;;;;;5102765;27;1332;-77
2022/05/29 01:21:18;;;;;;;;;;;;;;;;;;5104841;28;1124;-78
2022/05/29 01:23:59;;;;;;;;;;;;;;;;;;5112366;27;1946;-78
2022/05/29 01:26:34;;;;;;;;;;;;;;;;;;5122783;27;1250;-78
2022/05/29 01:29:01;;;;;;;;;;;;;;;;;;5086502;28;1166;-78
2022/05/29 01:31:26;;;;;;;;;;;;;;;;;;5107540;27;1159;-77
2022/05/29 01:34:09;;;;;;;;;;;;;;;;;;5121220;27;1116;-78
2022/05/29 01:36:42;;;;;;;;;;;;;;;;;;5094897;28;1230;-77
2022/05/29 01:39:29;;;;;;;;;;;;;;;;;;5103073;27;1247;-78
2022/05/29 01:42:01;;;;;;;;;;;;;;;;;;5086597;28;1364;-77
2022/05/29 01:44:36;;;;;;;;;;;;;;;;;;5106750;27;1976;-78
2022/05/29 01:47:06;;;;;;;;;;;;;;;;;;5117822;27;1423;-77
2022/05/29 01:49:41;;;;;;;;;;;;;;;;;;5098382;28;1215;-77
2022/05/29 01:52:12;;;;;;;;;;;;;;;;;;5086225;28;1194;-77
2022/05/29 01:55:00;;;;;;;;;;;;;;;;;;5087542;27;1214;-77
2022/05/29 01:57:27;;;;;;;;;;;;;;;;;;5096567;27;1395;-78
2022/05/29 01:59:58;;;;;;;;;;;;;;;;;;5113645;27;1183;-78
2022/05/29 02:02:45;;;;;;;;;;;;;;;;;;5090763;27;1352;-78
2022/05/29 02:05:16;;;;;;;;;;;;;;;;;;5085263;28;1893;-78
2022/05/29 02:07:50;;;;;;;;;;;;;;;;;;5083888;28;1305;-77
2022/05/29 02:10:18;;;;;;;;;;;;;;;;;;5085467;28;1523;-78
2022/05/29 02:12:49;;;;;;;;;;;;;;;;;;5087477;28;1314;-78
2022/05/29 02:15:16;;;;;;;;;;;;;;;;;;5088675;27;1396;-77
2022/05/29 02:17:45;;;;;;;;;;;;;;;;;;5088092;28;1337;-77
2022/05/29 02:20:18;;;;;;;;;;;;;;;;;;5091372;28;1172;-78
2022/05/29 02:22:46;;;;;;;;;;;;;;;;;;5091510;27;1330;-78
2022/05/29 02:25:14;;;;;;;;;;;;;;;;;;5093790;27;1951;-78
2022/05/29 02:27:39;;;;;;;;;;;;;;;;;;5117480;27;1242;-78
2022/05/29 02:30:05;;;;;;;;;;;;;;;;;;5084500;28;1219;-78
2022/05/29 02:32:37;;;;;;;;;;;;;;;;;;5084749;28;1280;-78
2022/05/29 02:35:06;;;;;;;;;;;;;;;;;;5079302;28;1203;-78
2022/05/29 02:37:47;;;;;;;;;;;;;;;;;;5099415;28;1196;-79
2022/05/29 02:40:21;;;;;;;;;;;;;;;;;;5083897;28;1276;-78
2022/05/29 02:42:57;;;;;;;;;;;;;;;;;;5121408;27;1068;-78
2022/05/29 02:45:25;;;;;;;;;;;;;;;;;;5085562;28;1977;-78
2022/05/29 02:47:54;;;;;;;;;;;;;;;;;;5077342;28;1144;-79
2022/05/29 02:50:20;;;;;;;;;;;;;;;;;;5081863;28;1124;-77
2022/05/29 02:52:50;;;;;;;;;;;;;;;;;;5080459;28;1365;-77
2022/05/29 02:55:16;;;;;;;;;;;;;;;;;;5076886;28;1242;-77
2022/05/29 02:57:42;;;;;;;;;;;;;;;;;;5078055;28;1206;-78
2022/05/29 03:00:11;;;;;;;;;;;;;;;;;;5082111;28;1127;-78
2022/05/29 03:02:54;;;;;;;;;;;;;;;;;;5082753;28;1187;-76
2022/05/29 03:05:25;;;;;;;;;;;;;;;;;;5100942;28;1897;-76
2022/05/29 03:07:59;;;;;;;;;;;;;;;;;;5090564;28;1432;-75
2022/05/29 03:10:31;;;;;;;;;;;;;;;;;;5090010;28;1158;-76
2022/05/29 03:12:56;;;;;;;;;;;;;;;;;;5082521;28;1203;-76
2022/05/29 03:15:21;;;;;;;;;;;;;;;;;;5089509;28;1210;-75
2022/05/29 03:18:06;;;;;;;;;;;;;;;;;;5093253;28;1321;-76
2022/05/29 03:20:34;;;;;;;;;;;;;;;;;;5103713;28;1262;-76
2022/05/29 03:23:08;;;;;;;;;;;;;;;;;;5092869;28;1187;-76
2022/05/29 03:25:41;;;;;;;;;;;;;;;;;;5082330;28;1898;-76
2022/05/29 03:28:14;;;;;;;;;;;;;;;;;;5089549;28;1337;-76
2022/05/29 03:30:40;;;;;;;;;;;;;;;;;;5082236;28;1188;-76
2022/05/29 03:33:07;;;;;;;;;;;;;;;;;;5079747;28;1318;-76
2022/05/29 03:35:33;;;;;;;;;;;;;;;;;;5099578;28;1293;-76
2022/05/29 03:37:59;;;;;;;;;;;;;;;;;;5084631;28;1210;-76
2022/05/29 03:40:26;;;;;;;;;;;;;;;;;;5083203;28;1348;-76
2022/05/29 03:42:52;;;;;;;;;;;;;;;;;;5082549;28;1392;-77
2022/05/29 03:45:18;;;;;;;;;;;;;;;;;;5080628;28;1922;-76
2022/05/29 03:47:43;;;;;;;;;;;;;;;;;;5062873;28;1283;-76
2022/05/29 03:50:11;;;;;;;;;;;;;;;;;;5082047;28;1124;-77
2022/05/29 03:52:36;;;;;;;;;;;;;;;;;;5092699;28;1294;-76
2022/05/29 03:55:03;;;;;;;;;;;;;;;;;;5100485;28;1258;-77
2022/05/29 03:57:28;;;;;;;;;;;;;;;;;;5087934;28;1231;-76
2022/05/29 03:59:54;;;;;;;;;;;;;;;;;;5095823;28;1250;-77
2022/05/29 04:02:19;;;;;;;;;;;;;;;;;;5081236;28;1211;-77
2022/05/29 04:04:45;;;;;;;;;;;;;;;;;;5064167;28;1905;-77
2022/05/29 04:07:10;;;;;;;;;;;;;;;;;;5082177;28;1273;-77
2022/05/29 04:12:20;;;;;;;;;;;;;;;;;;5082736;28;1056;-77
2022/05/29 04:14:45;;;;;;;;;;;;;;;;;;5093213;28;1124;-77
2022/05/29 04:17:12;;;;;;;;;;;;;;;;;;5076896;28;1346;-77
2022/05/29 04:19:39;;;;;;;;;;;;;;;;;;5094776;28;1064;-78
2022/05/29 04:22:08;;;;;;;;;;;;;;;;;;5064792;28;1345;-77
2022/05/29 04:24:33;;;;;;;;;;;;;;;;;;5089055;28;1945;-77
2022/05/29 04:26:59;;;;;;;;;;;;;;;;;;5065050;28;1345;-77
2022/05/29 04:29:24;;;;;;;;;;;;;;;;;;5062340;28;1299;-77
2022/05/29 04:34:33;;;;;;;;;;;;;;;;;;5083679;28;1142;-77
2022/05/29 04:36:59;;;;;;;;;;;;;;;;;;5066629;28;1214;-77
2022/05/29 04:39:25;;;;;;;;;;;;;;;;;;5091192;28;1321;-78
2022/05/29 04:41:50;;;;;;;;;;;;;;;;;;5105392;28;1222;-77
2022/05/29 04:44:16;;;;;;;;;;;;;;;;;;5102467;28;1929;-78
2022/05/29 04:46:41;;;;;;;;;;;;;;;;;;5086433;28;1186;-77
2022/05/29 04:49:06;;;;;;;;;;;;;;;;;;5104227;28;1259;-76
2022/05/29 04:51:32;;;;;;;;;;;;;;;;;;5072171;28;1329;-78
2022/05/29 04:53:58;;;;;;;;;;;;;;;;;;5082223;28;1210;-77
2022/05/29 04:56:23;;;;;;;;;;;;;;;;;;5064232;28;1374;-76
2022/05/29 04:58:49;;;;;;;;;;;;;;;;;;5083246;28;1160;-77
2022/05/29 05:01:15;;;;;;;;;;;;;;;;;;5080910;28;1191;-77
2022/05/29 05:03:40;;;;;;;;;;;;;;;;;;5085214;28;1180;-78
2022/05/29 05:06:05;;;;;;;;;;;;;;;;;;5060971;28;1961;-76
2022/05/29 05:08:31;;;;;;;;;;;;;;;;;;5067269;28;1173;-76
2022/05/29 05:10:57;;;;;;;;;;;;;;;;;;5086718;28;1188;-77
2022/05/29 05:13:22;;;;;;;;;;;;;;;;;;5088153;28;1340;-76
2022/05/29 05:15:48;;;;;;;;;;;;;;;;;;5079067;28;1191;-76
2022/05/29 05:18:13;;;;;;;;;;;;;;;;;;5091388;28;1254;-77
2022/05/29 05:20:39;;;;;;;;;;;;;;;;;;5080835;28;1143;-77
2022/05/29 05:23:04;;;;;;;;;;;;;;;;;;5092716;28;1379;-77
2022/05/29 05:25:30;;;;;;;;;;;;;;;;;;5065680;28;1898;-77
2022/05/29 05:27:55;;;;;;;;;;;;;;;;;;5081116;28;1318;-77
2022/05/29 05:30:20;;;;;;;;;;;;;;;;;;5080677;28;1246;-77
2022/05/29 05:32:46;;;;;;;;;;;;;;;;;;5090488;28;1190;-77
2022/05/29 05:35:11;;;;;;;;;;;;;;;;;;5054973;28;1266;-77
2022/05/29 05:37:37;;;;;;;;;;;;;;;;;;5092081;28;1330;-77
2022/05/29 05:40:10;;;;;;;;;;;;;;;;;;5049458;28;1299;-77
2022/05/29 05:42:36;;;;;;;;;;;;;;;;;;5104464;28;1564;-77
2022/05/29 05:45:03;;;;;;;;;;;;;;;;;;5113610;27;1897;-76
2022/05/29 05:47:28;;;;;;;;;;;;;;;;;;5066622;28;1273;-76
2022/05/29 05:49:53;;;;;;;;;;;;;;;;;;5065453;28;1282;-77
2022/05/29 05:52:19;;;;;;;;;;;;;;;;;;5120201;27;1156;-77
2022/05/29 05:54:45;;;;;;;;;;;;;;;;;;5093542;28;1278;-76
2022/05/29 05:57:10;;;;;;;;;;;;;;;;;;5082043;28;1317;-76
2022/05/29 05:59:36;;;;;;;;;;;;;;;;;;5112754;27;1227;-78
2022/05/29 06:02:02;;;;;;;;;;;;;;;;;;5081648;28;1203;-78
2022/05/29 06:04:27;;;;;;;;;;;;;;;;;;5084415;28;1919;-78
2022/05/29 06:06:53;;;;;;;;;;;;;;;;;;5073368;28;1219;-78
2022/05/29 06:09:20;;;;;;;;;;;;;;;;;;5066051;28;1424;-78
2022/05/29 06:11:46;;;;;;;;;;;;;;;;;;5078091;27;1317;-77
2022/05/29 06:14:11;;;;;;;;;;;;;;;;;;5076820;28;1267;-76
2022/05/29 06:16:37;;;;;;;;;;;;;;;;;;5097742;28;1203;-75
2022/05/29 06:19:05;;;;;;;;;;;;;;;;;;5068660;28;1223;-76
2022/05/29 06:21:31;;;;;;;;;;;;;;;;;;5082658;27;1256;-76
2022/05/29 06:23:56;;;;;;;;;;;;;;;;;;5095139;28;1897;-76
2022/05/29 06:26:21;;;;;;;;;;;;;;;;;;5072694;27;1443;-75
2022/05/29 06:28:47;;;;;;;;;;;;;;;;;;5106310;27;1334;-77
2022/05/29 06:31:12;;;;;;;;;;;;;;;;;;5098844;27;1235;-76
2022/05/29 06:33:38;;;;;;;;;;;;;;;;;;5082443;28;1255;-76
2022/05/29 06:36:14;;;;;;;;;;;;;;;;;;5102607;27;1164;-76
2022/05/29 06:38:40;;;;;;;;;;;;;;;;;;5105091;27;1144;-76
2022/05/29 06:41:06;;;;;;;;;;;;;;;;;;5118982;27;1164;-76
2022/05/29 06:43:32;;;;;;;;;;;;;;;;;;5100399;27;1088;-76
2022/05/29 06:45:58;;;;;;;;;;;;;;;;;;5100147;27;1921;-76
2022/05/29 06:48:23;;;;;;;;;;;;;;;;;;5101051;27;1310;-76
2022/05/29 06:50:48;;;;;;;;;;;;;;;;;;5085789;27;1310;-76
2022/05/29 06:53:14;;;;;;;;;;;;;;;;;;5102416;27;1223;-76
2022/05/29 06:55:39;;;;;;;;;;;;;;;;;;5102178;28;1285;-76
2022/05/29 06:58:04;;;;;;;;;;;;;;;;;;5106559;28;1159;-76
2022/05/29 07:08:43;;;;;;;;;;;;;;;;;;5089627;28;1087;-77
2022/05/29 07:11:15;;;;;;;;;;;;;;;;;;5082341;28;1191;-77
2022/05/29 07:13:41;;;;;;;;;;;;;;;;;;5111254;28;1203;-76
2022/05/29 07:16:06;;;;;;;;;;;;;;;;;;5115364;28;1169;-76
2022/05/29 07:18:32;;;;;;;;;;;;;;;;;;5085213;28;1243;-77
2022/05/29 07:21:01;;;;;;;;;;;;;;;;;;5082709;28;1191;-77
2022/05/29 07:23:26;;;;;;;;;;;;;;;;;;5095812;28;1223;-77
2022/05/29 07:25:51;;;;;;;;;;;;;;;;;;5061763;28;1983;-77
2022/05/29 07:28:17;;;;;;;;;;;;;;;;;;5070956;28;1268;-77
2022/05/29 07:30:42;;;;;;;;;;;;;;;;;;5063615;28;1207;-77
2022/05/29 07:33:07;;;;;;;;;;;;;;;;;;5096711;28;1352;-77
2022/05/29 07:35:33;;;;;;;;;;;;;;;;;;5099252;28;1188;-77
2022/05/29 07:37:58;;;;;;;;;;;;;;;;;;5085363;28;1270;-77
2022/05/29 07:40:24;;;;;;;;;;;;;;;;;;5080910;28;1219;-77
2022/05/29 07:45:33;;;;;;;;;;;;;;;;;;5092039;28;1902;-79
2022/05/29 07:47:59;;;;;;;;;;;;;;;;;;5074744;28;1381;-77
2022/05/29 07:50:25;;;;;;;;;;;;;;;;;;5097859;28;1242;-77
2022/05/29 07:52:52;;;;;;;;;;;;;;;;;;5092116;28;1322;-77
2022/05/29 07:55:17;;;;;;;;;;;;;;;;;;5117438;28;1230;-79
2022/05/29 07:57:43;;;;;;;;;;;;;;;;;;5069220;28;1370;-78
2022/05/29 08:00:09;;;;;;;;;;;;;;;;;;5062551;28;1205;-79
2022/05/29 08:02:35;;;;;;;;;;;;;;;;;;5087202;28;1293;-80
2022/05/29 08:05:01;;;;;;;;;;;;;;;;;;5073575;28;1933;-77
2022/05/29 08:07:26;;;;;;;;;;;;;;;;;;5066138;28;1315;-77
2022/05/29 08:09:52;;;;;;;;;;;;;;;;;;5105976;28;1144;-76
2022/05/29 08:12:18;;;;;;;;;;;;;;;;;;5064704;28;1356;-75
2022/05/29 08:14:43;;;;;;;;;;;;;;;;;;5066587;28;1357;-74
2022/05/29 08:17:09;;;;;;;;;;;;;;;;;;5068108;28;1369;-75
2022/05/29 08:19:35;;;;;;;;;;;;;;;;;;5050778;28;1132;-76
2022/05/29 08:22:01;;;;;;;;;;;;;;;;;;5112172;27;1120;-75
2022/05/29 08:32:38;;;;;;;;;;;;;;;;;;5107107;27;1033;-75
2022/05/29 08:35:03;;;;;;;;;;;;;;;;;;5092794;27;1262;-75
2022/05/29 08:37:28;;;;;;;;;;;;;;;;;;5109250;27;1250;-75
2022/05/29 08:39:54;;;;;;;;;;;;;;;;;;5106311;27;1298;-75
2022/05/29 08:42:21;;;;;;;;;;;;;;;;;;5082656;28;1281;-86
2022/05/29 08:44:48;;;;;;;;;;;;;;;;;;5101214;27;1973;-84
2022/05/29 08:47:14;;;;;;;;;;;;;;;;;;5106072;27;1192;-84
2022/05/29 08:49:43;;;;;;;;;;;;;;;;;;5106992;27;1174;-83
2022/05/29 08:52:23;;;;;;;;;;;;;;;;;;5101231;27;1440;-84
2022/05/29 08:54:52;;;;;;;;;;;;;;;;;;5108574;28;1152;-81
2022/05/29 08:57:28;;;;;;;;;;;;;;;;;;5100741;27;1168;-79
2022/05/29 09:00:01;;;;;;;;;;;;;;;;;;5099874;28;1167;-80
2022/05/29 09:02:43;;;;;;;;;;;;;;;;;;5107656;27;1152;-80
2022/05/29 09:05:10;;;;;;;;;;;;;;;;;;5098404;27;1894;-76
2022/05/29 09:07:36;;;;;;;;;;;;;;;;;;5118259;27;1064;-76
2022/05/29 09:10:06;;;;;;;;;;;;;;;;;;5106304;27;1183;-75
2022/05/29 09:12:35;;;;;;;;;;;;;;;;;;5124341;27;1128;-77
2022/05/29 09:15:03;;;;;;;;;;;;;;;;;;5128479;27;1288;-76
2022/05/29 09:17:43;;;;;;;;;;;;;;;;;;5100091;27;1242;-74
2022/05/29 09:20:25;;;;;;;;;;;;;;;;;;5110653;27;1183;-77
2022/05/29 09:22:51;;;;;;;;;;;;;;;;;;5076195;28;1385;-74
2022/05/29 09:25:16;;;;;;;;;;;;;;;;;;5050538;28;1956;-76
2022/05/29 09:27:44;;;;;;;;;;;;;;;;;;5085587;28;1112;-76
2022/05/29 09:30:09;;;;;;;;;;;;;;;;;;5103539;28;1168;-75
2022/05/29 09:32:41;;;;;;;;;;;;;;;;;;5101896;28;1223;-76
2022/05/29 09:35:11;;;;;;;;;;;;;;;;;;5083224;28;1171;-76
2022/05/29 09:37:59;;;;;;;;;;;;;;;;;;5102466;28;1254;-76
2022/05/29 09:40:37;;;;;;;;;;;;;;;;;;5102557;28;1105;-75
2022/05/29 09:43:12;;;;;;;;;;;;;;;;;;5081925;28;1302;-76
2022/05/29 09:45:41;;;;;;;;;;;;;;;;;;5081477;28;1976;-76
2022/05/29 09:51:07;;;;;;;;;;;;;;;;;;5102123;28;1029;-75
2022/05/29 09:53:40;;;;;;;;;;;;;;;;;;5104797;28;1096;-75
2022/05/29 09:56:07;;;;;;;;;;;;;;;;;;5084557;28;1328;-75
2022/05/29 09:58:52;;;;;;;;;;;;;;;;;;5084676;28;1345;-75
2022/05/29 10:01:26;;;;;;;;;;;;;;;;;;5104400;28;1210;-75
2022/05/29 10:03:54;;;;;;;;;;;;;;;;;;5083193;28;1232;-75
2022/05/29 10:06:41;;;;;;;;;;;;;;;;;;5087246;28;2008;-75
2022/05/29 10:09:11;;;;;;;;;;;;;;;;;;5106634;28;1160;-75
2022/05/29 10:11:37;;;;;;;;;;;;;;;;;;5098724;28;1180;-76
2022/05/29 10:14:21;;;;;;;;;;;;;;;;;;5086467;28;1199;-76
2022/05/29 10:16:49;;;;;;;;;;;;;;;;;;5085036;28;1089;-76
2022/05/29 10:19:30;;;;;;;;;;;;;;;;;;5068347;28;1290;-76
2022/05/29 10:21:56;;;;;;;;;;;;;;;;;;5101480;27;1119;-76
2022/05/29 10:24:23;;;;;;;;;;;;;;;;;;5107754;27;1947;-76
2022/05/29 10:26:50;;;;;;;;;;;;;;;;;;5087010;28;1204;-77
2022/05/29 10:29:21;;;;;;;;;;;;;;;;;;5084876;28;1081;-76
2022/05/29 10:31:48;;;;;;;;;;;;;;;;;;5097041;28;1061;-76
2022/05/29 10:34:30;;;;;;;;;;;;;;;;;;5097567;28;1174;-76
2022/05/29 10:36:56;;;;;;;;;;;;;;;;;;5084225;28;1085;-77
2022/05/29 10:39:23;;;;;;;;;;;;;;;;;;5084762;28;1108;-76
2022/05/29 10:41:49;;;;;;;;;;;;;;;;;;5112771;27;1052;-76
2022/05/29 10:44:33;;;;;;;;;;;;;;;;;;5115878;27;1898;-76
2022/05/29 10:47:06;;;;;;;;;;;;;;;;;;5086761;28;1615;-76
2022/05/29 10:49:35;;;;;;;;;;;;;;;;;;5101051;27;1341;-77
2022/05/29 10:52:00;;;;;;;;;;;;;;;;;;5101787;28;1333;-77
2022/05/29 10:54:31;;;;;;;;;;;;;;;;;;5104009;27;1199;-77
2022/05/29 10:57:16;;;;;;;;;;;;;;;;;;5100803;27;1164;-77
2022/05/29 10:59:41;;;;;;;;;;;;;;;;;;5119272;27;1140;-75
2022/05/29 11:05:06;;;;;;;;;;;;;;;;;;5118616;28;1925;-77
2022/05/29 11:07:41;;;;;;;;;;;;;;;;;;5105142;28;1310;-77
2022/05/29 11:10:16;;;;;;;;;;;;;;;;;;5100037;28;1420;-77
2022/05/29 11:12:54;;;;;;;;;;;;;;;;;;5092206;28;1157;-77
2022/05/29 11:15:20;;;;;;;;;;;;;;;;;;5082007;28;1417;-77
2022/05/29 11:17:52;;;;;;;;;;;;;;;;;;5085478;28;1219;-77
2022/05/29 11:20:38;;;;;;;;;;;;;;;;;;5082246;28;1223;-77
2022/05/29 11:23:12;;;;;;;;;;;;;;;;;;5092781;28;1226;-76
2022/05/29 11:25:40;;;;;;;;;;;;;;;;;;5114865;28;1882;-76
2022/05/29 11:28:24;;;;;;;;;;;;;;;;;;5105873;28;1389;-77
2022/05/29 11:30:58;;;;;;;;;;;;;;;;;;5086155;28;1281;-77
2022/05/29 11:33:49;;;;;;;;;;;;;;;;;;5088078;28;1223;-76
2022/05/29 11:36:28;;;;;;;;;;;;;;;;;;5121030;28;1159;-76
2022/05/29 11:39:12;;;;;;;;;;;;;;;;;;5092192;28;1300;-76
2022/05/29 11:41:41;;;;;;;;;;;;;;;;;;5119586;27;1187;-76
2022/05/29 11:44:25;;;;;;;;;;;;;;;;;;5110507;27;1981;-76
2022/05/29 11:52:38;;;;;;;;;;;;;;;;;;5113666;27;1210;-77
2022/05/29 11:55:13;;;;;;;;;;;;;;;;;;5103390;27;1159;-79
2022/05/29 11:57:50;;;;;;;;;;;;;;;;;;5109414;27;1186;-78
2022/05/29 12:00:36;;;;;;;;;;;;;;;;;;5110066;27;1352;-77
2022/05/29 12:03:20;;;;;;;;;;;;;;;;;;5096072;27;1326;-77
2022/05/29 12:05:53;;;;;;;;;;;;;;;;;;5105841;27;1914;-77
2022/05/29 12:08:25;;;;;;;;;;;;;;;;;;5123574;27;1147;-77
2022/05/29 12:10:56;;;;;;;;;;;;;;;;;;5094484;27;1294;-77
2022/05/29 12:13:23;;;;;;;;;;;;;;;;;;5105038;28;1182;-78
2022/05/29 12:15:54;;;;;;;;;;;;;;;;;;5105112;28;1156;-77
2022/05/29 12:18:21;;;;;;;;;;;;;;;;;;5103307;28;1167;-77
2022/05/29 12:20:55;;;;;;;;;;;;;;;;;;5070561;28;1233;-77
2022/05/29 12:23:26;;;;;;;;;;;;;;;;;;5087457;28;1396;-77
2022/05/29 12:26:00;;;;;;;;;;;;;;;;;;5102701;28;1882;-77
2022/05/29 12:28:34;;;;;;;;;;;;;;;;;;5104629;27;1380;-77
2022/05/29 12:31:01;;;;;;;;;;;;;;;;;;5094504;27;1281;-77
2022/05/29 12:33:27;;;;;;;;;;;;;;;;;;5094951;28;1120;-77
2022/05/29 12:36:05;;;;;;;;;;;;;;;;;;5084242;28;1404;-76
2022/05/29 12:38:37;;;;;;;;;;;;;;;;;;5085534;28;1322;-76
2022/05/29 12:41:12;;;;;;;;;;;;;;;;;;5092351;27;1235;-76
2022/05/29 12:44:02;;;;;;;;;;;;;;;;;;5120717;27;1408;-76
2022/05/29 12:46:34;;;;;;;;;;;;;;;;;;5094121;27;1355;-76
2022/05/29 12:49:19;;;;;;;;;;;;;;;;;;5096882;28;1324;-76
2022/05/29 12:52:03;;;;;;;;;;;;;;;;;;5120451;27;1116;-76
2022/05/29 12:54:45;;;;;;;;;;;;;;;;;;5125093;27;1214;-76
2022/05/29 12:57:29;;;;;;;;;;;;;;;;;;5099235;28;1253;-76
2022/05/29 12:59:57;;;;;;;;;;;;;;;;;;5102964;28;1112;-77
2022/05/29 13:02:26;;;;;;;;;;;;;;;;;;5106409;27;1210;-77
2022/05/29 13:04:51;;;;;;;;;;;;;;;;;;5090639;27;1885;-76
2022/05/29 13:07:24;;;;;;;;;;;;;;;;;;5095858;27;1190;-76
2022/05/29 13:10:02;;;;;;;;;;;;;;;;;;5096468;27;1409;-78
2022/05/29 13:12:29;;;;;;;;;;;;;;;;;;5089298;28;1284;-77
2022/05/29 13:15:02;;;;;;;;;;;;;;;;;;5088293;27;1231;-77
2022/05/29 13:17:29;;;;;;;;;;;;;;;;;;5111732;27;1139;-77
2022/05/29 13:20:21;;;;;;;;;;;;;;;;;;5082956;27;1424;-75
2022/05/29 13:22:59;;;;;;;;;;;;;;;;;;5097837;27;1308;-76
2022/05/29 13:25:26;;;;;;;;;;;;;;;;;;5102792;27;1862;-74
2022/05/29 13:27:52;;;;;;;;;;;;;;;;;;5104480;27;1309;-75
2022/05/29 13:30:40;;;;;;;;;;;;;;;;;;5104506;27;1194;-74
2022/05/29 13:33:24;;;;;;;;;;;;;;;;;;5113652;27;1200;-75
2022/05/29 13:35:50;;;;;;;;;;;;;;;;;;5101323;27;1325;-74
2022/05/29 13:38:34;;;;;;;;;;;;;;;;;;5089172;27;1233;-75
2022/05/29 13:41:03;;;;;;;;;;;;;;;;;;5102378;27;1201;-74
2022/05/29 13:43:28;;;;;;;;;;;;;;;;;;5108171;27;1401;-75
2022/05/29 13:46:04;;;;;;;;;;;;;;;;;;5102467;27;2021;-75
2022/05/29 13:48:31;;;;;;;;;;;;;;;;;;5105637;27;1179;-75
2022/05/29 13:51:11;;;;;;;;;;;;;;;;;;5081802;28;1224;-74
2022/05/29 13:53:50;;;;;;;;;;;;;;;;;;5085910;28;1297;-74
2022/05/29 13:56:18;;;;;;;;;;;;;;;;;;5075329;28;1277;-74
2022/05/29 14:04:40;;;;;;;;;;;;;;;;;;5115691;27;1922;-74
2022/05/29 14:07:08;;;;;;;;;;;;;;;;;;5105666;27;1281;-74
2022/05/29 14:09:33;;;;;;;;;;;;;;;;;;5106663;27;1294;-74
2022/05/29 14:12:01;;;;;;;;;;;;;;;;;;5120445;27;1143;-75
2022/05/29 14:14:37;;;;;;;;;;;;;;;;;;5124560;27;1148;-75
2022/05/29 14:17:21;;;;;;;;;;;;;;;;;;5104771;27;1091;-74
2022/05/29 14:19:55;;;;;;;;;;;;;;;;;;5098454;27;1219;-74
2022/05/29 14:22:33;;;;;;;;;;;;;;;;;;5106385;27;1223;-74
2022/05/29 14:25:10;;;;;;;;;;;;;;;;;;5100947;27;1957;-74
2022/05/29 14:28:03;;;;;;;;;;;;;;;;;;5106470;27;1242;-74
2022/05/29 14:30:34;;;;;;;;;;;;;;;;;;5119708;27;1219;-75
2022/05/29 14:32:59;;;;;;;;;;;;;;;;;;5103254;27;1099;-75
2022/05/29 14:35:33;;;;;;;;;;;;;;;;;;5098264;27;1345;-74
2022/05/29 14:38:18;;;;;;;;;;;;;;;;;;5121418;27;1113;-75
2022/05/29 14:40:53;;;;;;;;;;;;;;;;;;5122543;27;1315;-74
2022/05/29 14:43:21;;;;;;;;;;;;;;;;;;5104739;27;1203;-75
2022/05/29 14:46:21;;;;;;;;;;;;;;;;;;5122838;27;1938;-74
2022/05/29 14:49:03;;;;;;;;;;;;;;;;;;5100718;27;1333;-74
2022/05/29 14:51:31;;;;;;;;;;;;;;;;;;5100221;27;1243;-74
2022/05/29 14:53:59;;;;;;;;;;;;;;;;;;5104023;28;1293;-74
2022/05/29 14:56:36;;;;;;;;;;;;;;;;;;5090087;28;1190;-75
2022/05/29 14:59:37;;;;;;;;;;;;;;;;;;5083450;28;1278;-74
2022/05/29 15:02:13;;;;;;;;;;;;;;;;;;5018367;28;1378;-74
2022/05/29 15:04:40;;;;;;;;;;;;;;;;;;5069383;28;1887;-74
2022/05/29 15:12:42;;;;;;;;;;;;;;;;;;5106764;28;981;-74
2022/05/29 15:15:20;;;;;;;;;;;;;;;;;;5101424;28;1231;-75
2022/05/29 15:17:45;;;;;;;;;;;;;;;;;;5090255;27;1203;-76
2022/05/29 15:25:40;;;;;;;;;;;;;;;;;;5125685;27;1881;-76
2022/05/29 15:28:08;;;;;;;;;;;;;;;;;;5124590;27;1219;-76
2022/05/29 15:30:34;;;;;;;;;;;;;;;;;;5100569;27;1321;-76
2022/05/29 15:33:04;;;;;;;;;;;;;;;;;;5110277;27;1128;-75
2022/05/29 15:35:37;;;;;;;;;;;;;;;;;;5119843;27;1020;-75
2022/05/29 15:38:21;;;;;;;;;;;;;;;;;;5107459;27;1164;-76
2022/05/29 15:40:57;;;;;;;;;;;;;;;;;;5108148;27;1179;-76
2022/05/29 15:43:22;;;;;;;;;;;;;;;;;;5086638;28;1192;-75
2022/05/29 15:45:56;;;;;;;;;;;;;;;;;;5084421;28;1965;-75
2022/05/29 15:48:22;;;;;;;;;;;;;;;;;;5082950;28;1127;-76
2022/05/29 15:50:56;;;;;;;;;;;;;;;;;;5083176;28;1493;-76
2022/05/29 15:53:48;;;;;;;;;;;;;;;;;;5084570;28;1136;-76
2022/05/29 15:56:25;;;;;;;;;;;;;;;;;;5078379;28;1199;-76
2022/05/29 15:59:01;;;;;;;;;;;;;;;;;;5096514;28;1288;-75
2022/05/29 16:01:27;;;;;;;;;;;;;;;;;;5096581;28;1162;-76
2022/05/29 16:03:53;;;;;;;;;;;;;;;;;;5095404;28;1293;-76
2022/05/29 16:06:23;;;;;;;;;;;;;;;;;;5088295;28;1890;-75
2022/05/29 16:08:50;;;;;;;;;;;;;;;;;;5098292;28;1132;-74
2022/05/29 16:11:31;;;;;;;;;;;;;;;;;;5087132;28;1084;-75
2022/05/29 16:13:56;;;;;;;;;;;;;;;;;;5086360;28;1187;-74
2022/05/29 16:16:24;;;;;;;;;;;;;;;;;;5059653;28;1242;-75
2022/05/29 16:18:52;;;;;;;;;;;;;;;;;;5078933;28;1183;-74
2022/05/29 16:21:36;;;;;;;;;;;;;;;;;;5086124;28;1321;-75
2022/05/29 16:24:06;;;;;;;;;;;;;;;;;;5089200;28;1498;-75
2022/05/29 16:26:31;;;;;;;;;;;;;;;;;;5082378;28;1890;-75
2022/05/29 16:29:06;;;;;;;;;;;;;;;;;;5093188;28;1274;-75
2022/05/29 16:31:38;;;;;;;;;;;;;;;;;;5090368;28;1295;-74
2022/05/29 16:34:15;;;;;;;;;;;;;;;;;;5097722;28;1195;-75
2022/05/29 16:48:07;;;;;;;;;;;;;;;;;;5089909;28;1266;-76
2022/05/29 16:50:38;;;;;;;;;;;;;;;;;;5086743;28;965;-75
2022/05/29 16:53:30;;;;;;;;;;;;;;;;;;5096622;28;1077;-75
2022/05/29 16:56:14;;;;;;;;;;;;;;;;;;5080399;28;1405;-74
2022/05/29 16:58:41;;;;;;;;;;;;;;;;;;5095893;28;1175;-74
2022/05/29 17:01:14;;;;;;;;;;;;;;;;;;5074257;28;1230;-74
2022/05/29 17:04:03;;;;;;;;;;;;;;;;;;5076954;28;1369;-74
2022/05/29 17:06:31;;;;;;;;;;;;;;;;;;5077992;27;1893;-74
2022/05/29 17:09:26;;;;;;;;;;;;;;;;;;5114162;27;1147;-76
2022/05/29 17:11:52;;;;;;;;;;;;;;;;;;5092432;27;1518;-76
2022/05/29 17:14:17;;;;;;;;;;;;;;;;;;5094548;27;1331;-76
2022/05/29 17:16:42;;;;;;;;;;;;;;;;;;5109866;27;1143;-76
2022/05/29 17:19:12;;;;;;;;;;;;;;;;;;5090089;27;1183;-76
2022/05/29 17:21:40;;;;;;;;;;;;;;;;;;5089355;27;1131;-75
2022/05/29 17:24:11;;;;;;;;;;;;;;;;;;5081304;28;1234;-74
2022/05/29 17:26:55;;;;;;;;;;;;;;;;;;5074006;28;1885;-74
2022/05/29 17:29:20;;;;;;;;;;;;;;;;;;5074052;28;1254;-74
2022/05/29 17:32:09;;;;;;;;;;;;;;;;;;5071470;28;1393;-75
2022/05/29 17:34:36;;;;;;;;;;;;;;;;;;5059426;28;1283;-75
2022/05/29 17:37:10;;;;;;;;;;;;;;;;;;5080535;27;1330;-76
2022/05/29 17:39:35;;;;;;;;;;;;;;;;;;5095711;27;1285;-76
2022/05/29 17:42:01;;;;;;;;;;;;;;;;;;5109279;27;1093;-75
2022/05/29 17:44:26;;;;;;;;;;;;;;;;;;5087372;27;1984;-75
2022/05/29 17:46:59;;;;;;;;;;;;;;;;;;5088790;27;1255;-76
2022/05/29 17:49:27;;;;;;;;;;;;;;;;;;5113227;27;1171;-75
2022/05/29 17:52:03;;;;;;;;;;;;;;;;;;5084033;27;1194;-75
2022/05/29 17:54:40;;;;;;;;;;;;;;;;;;5100186;27;1040;-74
2022/05/29 17:57:07;;;;;;;;;;;;;;;;;;5084605;28;1333;-74
2022/05/29 17:59:33;;;;;;;;;;;;;;;;;;5079662;28;1187;-75
2022/05/29 18:02:00;;;;;;;;;;;;;;;;;;5069412;28;1207;-74
2022/05/29 18:04:25;;;;;;;;;;;;;;;;;;5059398;27;1949;-74
2022/05/29 18:06:51;;;;;;;;;;;;;;;;;;5088160;27;1261;-74
2022/05/29 18:09:17;;;;;;;;;;;;;;;;;;5067663;27;1196;-74
2022/05/29 18:11:43;;;;;;;;;;;;;;;;;;5067683;28;1264;-74
2022/05/29 18:14:09;;;;;;;;;;;;;;;;;;5118550;27;1140;-74
2022/05/29 18:16:34;;;;;;;;;;;;;;;;;;5120963;27;1183;-74
2022/05/29 18:19:01;;;;;;;;;;;;;;;;;;5106736;27;1116;-74
2022/05/29 18:21:26;;;;;;;;;;;;;;;;;;5101525;27;1273;-74
2022/05/29 18:23:51;;;;;;;;;;;;;;;;;;5087454;27;1393;-74
2022/05/29 18:26:25;;;;;;;;;;;;;;;;;;5089195;28;1921;-74
2022/05/29 18:28:51;;;;;;;;;;;;;;;;;;5085090;28;1282;-75
2022/05/29 18:31:17;;;;;;;;;;;;;;;;;;5064200;28;1100;-74